createdAt,value
2023-04-14T00:01:42.463Z,1.80
2023-04-14T00:04:11.695Z,1.73
2023-04-14T00:06:40.465Z,1.87
2023-04-14T00:09:09.353Z,1.93
2023-04-14T00:11:37.586Z,1.80
2023-04-14T00:14:05.946Z,1.77
2023-04-14T00:16:34.268Z,1.70
2023-04-14T00:19:02.893Z,2.10
2023-04-14T00:21:31.619Z,1.50
2023-04-14T00:23:59.814Z,2.03
2023-04-14T00:26:28.028Z,1.87
2023-04-14T00:28:56.462Z,1.80
2023-04-14T00:31:24.723Z,1.70
2023-04-14T00:33:53.859Z,1.80
2023-04-14T00:36:22.075Z,1.73
2023-04-14T00:38:50.613Z,1.50
2023-04-14T00:41:18.886Z,1.87
2023-04-14T00:43:47.321Z,2.10
2023-04-14T00:46:17.220Z,1.70
2023-04-14T00:48:45.674Z,2.20
2023-04-14T00:51:15.703Z,2.57
2023-04-14T00:53:43.984Z,1.40
2023-04-14T00:56:12.539Z,1.30
2023-04-14T00:58:41.936Z,1.90
2023-04-14T01:01:11.136Z,1.90
2023-04-14T01:03:41.936Z,1.70
2023-04-14T01:06:11.044Z,1.70
2023-04-14T01:08:39.691Z,1.80
2023-04-14T01:11:31.437Z,2.00
2023-04-14T01:14:14.125Z,2.10
2023-04-14T01:16:45.376Z,1.60
2023-04-14T01:22:06.727Z,1.77
2023-04-14T01:24:48.928Z,2.63
2023-04-14T01:28:20.034Z,2.53
2023-04-14T01:31:25.874Z,3.40
2023-04-14T01:34:08.751Z,2.40
2023-04-14T01:36:56.583Z,2.73
2023-04-14T01:39:33.328Z,2.30
2023-04-14T01:42:09.242Z,2.53
2023-04-14T01:44:40.914Z,2.50
2023-04-14T01:47:14.081Z,2.33
2023-04-14T01:49:45.690Z,2.00
2023-04-14T01:52:16.593Z,2.35
2023-04-14T01:54:49.649Z,2.90
2023-04-14T01:57:22.963Z,2.30
2023-04-14T01:59:55.284Z,2.63
2023-04-14T02:02:26.265Z,2.13
2023-04-14T02:07:26.665Z,2.57
2023-04-14T02:09:58.627Z,2.30
2023-04-14T02:12:28.264Z,2.28
2023-04-14T02:14:56.575Z,2.97
2023-04-14T02:17:25.339Z,2.17
2023-04-14T02:19:55.338Z,1.83
2023-04-14T02:22:23.722Z,1.80
2023-04-14T02:24:54.403Z,2.30
2023-04-14T02:27:48.855Z,2.40
2023-04-14T02:30:32.055Z,2.63
2023-04-14T02:33:10.811Z,2.40
2023-04-14T02:35:52.918Z,2.17
2023-04-14T02:38:33.842Z,2.17
2023-04-14T02:41:09.270Z,2.17
2023-04-14T02:44:06.137Z,1.80
2023-04-14T02:46:40.923Z,3.37
2023-04-14T02:49:13.433Z,2.70
2023-04-14T02:51:45.866Z,2.17
2023-04-14T02:54:17.363Z,1.70
2023-04-14T02:56:48.869Z,1.50
2023-04-14T02:59:21.649Z,2.20
2023-04-14T03:04:34.421Z,1.40
2023-04-14T03:07:06.847Z,1.70
2023-04-14T03:09:36.421Z,2.10
2023-04-14T03:12:06.458Z,1.67
2023-04-14T03:14:39.020Z,1.97
2023-04-14T03:17:08.354Z,2.00
2023-04-14T03:19:40.679Z,2.37
2023-04-14T03:22:11.062Z,1.53
2023-04-14T03:24:39.886Z,1.67
2023-04-14T03:27:22.779Z,1.97
2023-04-14T03:29:55.136Z,1.60
2023-04-14T03:32:26.110Z,2.10
2023-04-14T03:37:28.158Z,2.42
2023-04-14T03:40:01.683Z,2.05
2023-04-14T03:42:36.436Z,2.17
2023-04-14T03:45:06.653Z,2.13
2023-04-14T03:47:38.701Z,2.07
2023-04-14T03:50:10.180Z,2.10
2023-04-14T03:52:41.684Z,2.00
2023-04-14T03:57:43.871Z,1.65
2023-04-14T04:00:16.243Z,2.10
2023-04-14T04:02:48.725Z,2.17
2023-04-14T04:05:17.740Z,2.17
2023-04-14T04:07:47.406Z,1.90
2023-04-14T04:10:16.577Z,2.90
2023-04-14T04:12:47.848Z,2.83
2023-04-14T04:15:17.760Z,2.37
2023-04-14T04:17:48.889Z,2.03
2023-04-14T04:20:19.428Z,2.60
2023-04-14T04:22:52.508Z,2.80
2023-04-14T04:25:21.427Z,2.73
2023-04-14T04:28:02.316Z,2.30
2023-04-14T04:30:33.351Z,2.27
2023-04-14T04:33:04.063Z,2.23
2023-04-14T04:35:33.516Z,2.13
2023-04-14T04:38:01.966Z,2.37
2023-04-14T04:40:38.420Z,1.87
2023-04-14T04:43:12.584Z,2.38
2023-04-14T04:46:20.377Z,2.60
2023-04-14T04:48:53.125Z,2.63
2023-04-14T04:51:21.462Z,2.57
2023-04-14T04:53:49.748Z,2.50
2023-04-14T04:56:18.014Z,2.13
2023-04-14T04:58:46.915Z,1.67
2023-04-14T05:01:16.973Z,1.70
2023-04-14T05:03:46.220Z,2.37
2023-04-14T05:06:16.521Z,2.20
2023-04-14T05:08:45.112Z,3.40
2023-04-14T05:11:13.353Z,2.33
2023-04-14T05:13:45.591Z,2.67
2023-04-14T05:16:14.974Z,2.20
2023-04-14T05:18:43.781Z,2.50
2023-04-14T05:21:13.587Z,2.60
2023-04-14T05:23:44.909Z,2.53
2023-04-14T05:28:44.719Z,1.92
2023-04-14T05:31:13.029Z,2.43
2023-04-14T05:33:41.432Z,1.97
2023-04-14T05:36:09.716Z,3.23
2023-04-14T05:38:41.958Z,2.07
2023-04-14T05:41:12.010Z,2.47
2023-04-14T05:43:40.367Z,2.30
2023-04-14T05:46:08.872Z,2.37
2023-04-14T05:48:38.103Z,3.03
2023-04-14T05:51:06.432Z,3.33
2023-04-14T05:53:34.678Z,2.93
2023-04-14T05:56:03.086Z,2.60
2023-04-14T05:58:31.249Z,2.97
2023-04-14T06:01:00.683Z,2.97
2023-04-14T06:03:30.333Z,3.27
2023-04-14T06:05:59.366Z,3.90
2023-04-14T06:08:28.047Z,3.83
2023-04-14T06:10:56.253Z,3.77
2023-04-14T06:13:24.620Z,5.37
2023-04-14T06:15:52.884Z,3.60
2023-04-14T06:18:21.306Z,4.13
2023-04-14T06:20:49.854Z,3.57
2023-04-14T06:23:17.812Z,4.77
2023-04-14T06:25:46.225Z,3.90
2023-04-14T06:28:14.909Z,4.10
2023-04-14T06:30:43.373Z,4.73
2023-04-14T06:33:11.704Z,3.40
2023-04-14T06:35:40.096Z,3.47
2023-04-14T06:38:08.357Z,4.20
2023-04-14T06:40:36.623Z,4.17
2023-04-14T06:43:06.364Z,4.80
2023-04-14T06:45:34.656Z,3.90
2023-04-14T06:48:03.080Z,4.73
2023-04-14T06:50:31.402Z,5.23
2023-04-14T06:52:59.630Z,4.97
2023-04-14T06:55:27.994Z,5.00
2023-04-14T06:57:56.343Z,4.80
2023-04-14T07:00:24.720Z,6.35
2023-04-14T07:02:56.906Z,4.93
2023-04-14T07:05:36.354Z,5.28
2023-04-14T07:08:32.999Z,5.00
2023-04-14T07:11:08.872Z,4.93
2023-04-14T07:13:47.461Z,4.43
2023-04-14T07:16:15.885Z,4.35
2023-04-14T07:18:45.762Z,5.20
2023-04-14T07:21:14.422Z,5.15
2023-04-14T07:23:47.690Z,5.80
2023-04-14T07:26:16.217Z,4.63
2023-04-14T07:28:44.410Z,5.40
2023-04-14T07:31:13.191Z,4.88
2023-04-14T07:33:42.784Z,4.70
2023-04-14T07:36:11.079Z,4.88
2023-04-14T07:38:39.304Z,4.45
2023-04-14T07:41:08.324Z,4.60
2023-04-14T07:43:36.959Z,4.93
2023-04-14T07:46:07.503Z,5.07
2023-04-14T07:48:37.784Z,5.18
2023-04-14T07:51:07.083Z,4.43
2023-04-14T07:53:40.291Z,4.15
2023-04-14T07:56:08.909Z,6.07
2023-04-14T07:58:37.390Z,4.55
2023-04-14T08:01:06.382Z,5.30
2023-04-14T08:03:37.320Z,4.43
2023-04-14T08:06:08.938Z,4.53
2023-04-14T08:08:39.961Z,4.97
2023-04-14T08:11:09.456Z,3.85
2023-04-14T08:13:43.082Z,3.95
2023-04-14T08:16:11.456Z,4.03
2023-04-14T08:18:41.575Z,4.50
2023-04-14T08:21:10.229Z,4.43
2023-04-14T08:23:38.714Z,4.15
2023-04-14T08:26:07.349Z,4.00
2023-04-14T08:28:35.629Z,4.78
2023-04-14T08:31:29.697Z,4.00
2023-04-14T08:34:00.480Z,4.00
2023-04-14T08:36:31.347Z,3.97
2023-04-14T08:39:01.283Z,3.83
2023-04-14T08:41:34.389Z,3.03
2023-04-14T08:44:02.932Z,3.60
2023-04-14T08:46:31.884Z,4.15
2023-04-14T08:49:07.056Z,3.35
2023-04-14T08:51:38.874Z,4.22
2023-04-14T08:54:10.675Z,3.20
2023-04-14T08:56:43.277Z,3.05
2023-04-14T08:59:12.539Z,2.38
2023-04-14T09:01:41.159Z,2.78
2023-04-14T09:04:10.285Z,2.90
2023-04-14T09:06:38.846Z,2.92
2023-04-14T09:09:07.688Z,3.03
2023-04-14T09:11:36.099Z,2.88
2023-04-14T09:14:04.974Z,3.25
2023-04-14T09:16:33.761Z,3.15
2023-04-14T09:19:06.764Z,2.78
2023-04-14T09:21:51.673Z,3.38
2023-04-14T09:24:33.965Z,2.95
2023-04-14T09:27:05.750Z,2.95
2023-04-14T09:29:36.400Z,3.08
2023-04-14T09:32:06.710Z,2.72
2023-04-14T09:34:35.199Z,2.55
2023-04-14T09:37:09.841Z,3.53
2023-04-14T09:39:54.145Z,2.63
2023-04-14T09:42:41.409Z,2.67
2023-04-14T09:45:10.174Z,3.60
2023-04-14T09:47:38.160Z,3.10
2023-04-14T09:50:07.385Z,2.83
2023-04-14T09:52:48.372Z,3.30
2023-04-14T09:55:17.335Z,3.30
2023-04-14T09:57:47.642Z,3.15
2023-04-14T10:00:16.392Z,3.55
2023-04-14T10:02:56.414Z,2.80
2023-04-14T10:05:31.244Z,2.58
2023-04-14T10:08:20.225Z,3.33
2023-04-14T10:10:48.594Z,2.78
2023-04-14T10:13:19.288Z,3.58
2023-04-14T10:15:47.583Z,3.25
2023-04-14T10:18:16.029Z,3.10
2023-04-14T10:20:44.303Z,2.55
2023-04-14T10:23:13.614Z,2.42
2023-04-14T10:25:41.805Z,2.75
2023-04-14T10:28:10.373Z,3.03
2023-04-14T10:30:43.204Z,3.03
2023-04-14T10:33:15.165Z,2.67
2023-04-14T10:35:56.429Z,2.58
2023-04-14T10:38:42.302Z,2.50
2023-04-14T10:41:48.135Z,2.80
2023-04-14T10:44:32.764Z,2.75
2023-04-14T10:47:05.501Z,2.90
2023-04-14T10:49:41.647Z,2.53
2023-04-14T10:52:15.638Z,2.80
2023-04-14T10:55:08.169Z,2.30
2023-04-14T10:57:45.432Z,2.42
2023-04-14T11:00:31.930Z,2.10
2023-04-14T11:03:16.352Z,2.70
2023-04-14T11:05:49.755Z,2.13
2023-04-14T11:08:34.787Z,2.13
2023-04-14T11:11:08.277Z,2.50
2023-04-14T11:13:38.678Z,2.13
2023-04-14T11:18:46.077Z,1.83
2023-04-14T11:21:17.302Z,1.88
2023-04-14T11:23:46.704Z,1.95
2023-04-14T11:26:14.896Z,2.47
2023-04-14T11:28:46.040Z,2.13
2023-04-14T11:31:17.303Z,2.08
2023-04-14T11:33:46.936Z,2.20
2023-04-14T11:36:15.600Z,2.30
2023-04-14T11:38:45.740Z,2.65
2023-04-14T11:41:16.345Z,2.15
2023-04-14T11:43:50.688Z,1.90
2023-04-14T11:46:24.925Z,2.10
2023-04-14T11:48:57.971Z,2.38
2023-04-14T11:51:32.321Z,2.10
2023-04-14T11:54:01.357Z,2.30
2023-04-14T11:56:31.828Z,2.00
2023-04-14T11:59:02.300Z,1.80
2023-04-14T12:01:31.197Z,2.10
2023-04-14T12:04:04.285Z,2.67
2023-04-14T12:06:57.290Z,2.15
2023-04-14T12:09:31.475Z,2.35
2023-04-14T12:11:59.921Z,3.83
2023-04-14T12:14:28.243Z,3.10
2023-04-14T12:16:56.669Z,2.33
2023-04-14T12:19:24.987Z,2.92
2023-04-14T12:21:53.408Z,2.65
2023-04-14T12:24:21.806Z,2.45
2023-04-14T12:26:50.521Z,2.25
2023-04-14T12:29:20.426Z,2.28
2023-04-14T12:31:48.575Z,2.47
2023-04-14T12:34:19.617Z,2.40
2023-04-14T12:36:52.341Z,2.42
2023-04-14T12:39:23.922Z,2.72
2023-04-14T12:41:52.233Z,2.58
2023-04-14T12:44:21.504Z,2.13
2023-04-14T12:46:52.608Z,2.53
2023-04-14T12:49:38.668Z,2.75
2023-04-14T12:52:08.291Z,2.70
2023-04-14T12:54:52.120Z,1.83
2023-04-14T12:57:22.231Z,2.10
2023-04-14T12:59:50.794Z,2.22
2023-04-14T13:02:19.360Z,1.98
2023-04-14T13:04:47.465Z,1.90
2023-04-14T13:07:15.944Z,2.20
2023-04-14T13:09:44.228Z,1.98
2023-04-14T13:12:12.694Z,1.63
2023-04-14T13:14:47.999Z,2.03
2023-04-14T13:17:16.577Z,1.80
2023-04-14T13:19:44.879Z,2.00
2023-04-14T13:22:14.207Z,1.65
2023-04-14T13:24:42.231Z,1.95
2023-04-14T13:27:11.525Z,1.50
2023-04-14T13:29:41.169Z,1.50
2023-04-14T13:32:12.719Z,1.70
2023-04-14T13:34:41.777Z,1.90
2023-04-14T13:37:16.893Z,1.50
2023-04-14T13:39:45.253Z,2.17
2023-04-14T13:42:14.986Z,1.70
2023-04-14T13:44:43.833Z,1.67
2023-04-14T13:47:12.817Z,1.85
2023-04-14T13:49:42.708Z,1.80
2023-04-14T13:52:10.704Z,1.80
2023-04-14T13:54:39.058Z,1.73
2023-04-14T13:57:08.058Z,2.20
2023-04-14T13:59:36.147Z,1.90
2023-04-14T14:02:04.772Z,1.92
2023-04-14T14:04:36.917Z,1.40
2023-04-14T14:07:05.742Z,1.50
2023-04-14T14:09:34.722Z,1.50
2023-04-14T14:12:03.108Z,1.80
2023-04-14T14:14:31.387Z,1.60
2023-04-14T14:16:59.321Z,1.77
2023-04-14T14:19:27.727Z,1.60
2023-04-14T14:22:03.031Z,1.45
2023-04-14T14:24:31.545Z,1.80
2023-04-14T14:27:02.190Z,1.50
2023-04-14T14:29:30.558Z,1.63
2023-04-14T14:31:59.554Z,1.30
2023-04-14T14:34:28.277Z,1.75
2023-04-14T14:36:57.512Z,1.73
2023-04-14T14:39:27.096Z,1.30
2023-04-14T14:41:55.452Z,1.77
2023-04-14T14:44:23.917Z,1.70
2023-04-14T14:46:52.791Z,1.50
2023-04-14T14:49:21.512Z,1.58
2023-04-14T14:51:49.723Z,1.58
2023-04-14T14:54:17.984Z,1.52
2023-04-14T14:56:47.390Z,1.77
2023-04-14T14:59:16.309Z,1.48
2023-04-14T15:01:46.384Z,1.25
2023-04-14T15:06:43.078Z,1.45
2023-04-14T15:09:11.365Z,1.38
2023-04-14T15:11:40.066Z,1.20
2023-04-14T15:14:09.188Z,1.83
2023-04-14T15:16:37.279Z,1.35
2023-04-14T15:19:05.646Z,1.50
2023-04-14T15:21:34.186Z,1.50
2023-04-14T15:24:02.675Z,1.20
2023-04-14T15:26:31.105Z,1.30
2023-04-14T15:29:01.301Z,1.50
2023-04-14T15:31:29.656Z,1.30
2023-04-14T15:34:23.383Z,1.40
2023-04-14T15:36:51.734Z,1.30
2023-04-14T15:39:19.951Z,1.60
2023-04-14T15:41:50.273Z,1.40
2023-04-14T15:44:43.538Z,1.48
2023-04-14T15:47:12.247Z,1.30
2023-04-14T15:49:40.855Z,1.38
2023-04-14T15:52:10.857Z,1.27
2023-04-14T15:54:39.689Z,1.60
2023-04-14T15:57:08.165Z,1.20
2023-04-14T15:59:37.497Z,1.20
2023-04-14T16:02:05.610Z,0.97
2023-04-14T16:04:34.217Z,1.10
2023-04-14T16:07:02.718Z,1.10
2023-04-14T16:09:31.286Z,1.55
2023-04-14T16:11:59.178Z,1.27
2023-04-14T16:14:32.380Z,1.30
2023-04-14T16:17:00.880Z,0.88
2023-04-14T16:19:29.042Z,1.17
2023-04-14T16:21:57.094Z,1.20
2023-04-14T16:24:25.432Z,1.00
2023-04-14T16:26:53.836Z,1.15
2023-04-14T16:29:22.134Z,1.50
2023-04-14T16:31:50.863Z,1.33
2023-04-14T16:34:20.307Z,0.90
2023-04-14T16:36:48.701Z,1.27
2023-04-14T16:39:17.072Z,1.27
2023-04-14T16:41:48.472Z,1.00
2023-04-14T16:44:17.601Z,1.23
2023-04-14T16:46:45.666Z,0.90
2023-04-14T16:49:14.564Z,0.95
2023-04-14T16:51:43.594Z,1.08
2023-04-14T16:54:11.713Z,1.45
2023-04-14T16:56:39.738Z,1.38
2023-04-14T16:59:08.908Z,1.42
2023-04-14T17:01:37.352Z,1.17
2023-04-14T17:04:06.375Z,1.40
2023-04-14T17:06:34.884Z,0.88
2023-04-14T17:09:03.761Z,1.40
2023-04-14T17:11:32.037Z,1.17
2023-04-14T17:14:01.270Z,1.58
2023-04-14T17:16:30.340Z,1.30
2023-04-14T17:18:58.528Z,1.75
2023-04-14T17:21:26.921Z,1.77
2023-04-14T17:23:55.446Z,1.38
2023-04-14T17:26:24.645Z,1.55
2023-04-14T17:28:52.576Z,1.17
2023-04-14T17:31:21.133Z,1.42
2023-04-14T17:33:50.179Z,1.20
2023-04-14T17:36:18.476Z,1.30
2023-04-14T17:38:46.959Z,1.40
2023-04-14T17:41:15.414Z,1.73
2023-04-14T17:43:43.741Z,1.60
2023-04-14T17:46:17.540Z,1.50
2023-04-14T17:48:54.799Z,1.50
2023-04-14T17:51:27.454Z,1.40
2023-04-14T17:53:58.347Z,1.50
2023-04-14T17:56:26.925Z,1.85
2023-04-14T17:58:55.603Z,1.45
2023-04-14T18:01:24.495Z,1.55
2023-04-14T18:03:53.163Z,1.42
2023-04-14T18:06:22.802Z,1.30
2023-04-14T18:08:51.753Z,1.25
2023-04-14T18:11:22.113Z,1.15
2023-04-14T18:13:50.640Z,1.20
2023-04-14T18:16:20.139Z,1.30
2023-04-14T18:18:48.461Z,1.75
2023-04-14T18:21:16.870Z,0.80
2023-04-14T18:23:45.244Z,1.20
2023-04-14T18:28:44.567Z,1.63
2023-04-14T18:31:13.925Z,1.35
2023-04-14T18:33:42.506Z,1.83
2023-04-14T18:36:10.840Z,1.65
2023-04-14T18:38:40.122Z,1.90
2023-04-14T18:41:08.782Z,1.70
2023-04-14T18:43:37.260Z,1.67
2023-04-14T18:46:05.741Z,1.48
2023-04-14T18:48:34.043Z,2.58
2023-04-14T18:51:06.784Z,2.35
2023-04-14T18:53:35.932Z,1.83
2023-04-14T18:56:05.053Z,2.00
2023-04-14T18:58:34.517Z,1.73
2023-04-14T19:01:03.740Z,1.80
2023-04-14T19:03:32.045Z,1.80
2023-04-14T19:06:00.486Z,1.98
2023-04-14T19:08:28.826Z,2.17
2023-04-14T19:10:59.177Z,1.80
2023-04-14T19:13:27.575Z,1.77
2023-04-14T19:16:13.672Z,2.40
2023-04-14T19:18:42.448Z,2.17
2023-04-14T19:21:10.680Z,2.00
2023-04-14T19:23:40.853Z,2.50
2023-04-14T19:26:11.362Z,1.50
2023-04-14T19:28:40.298Z,2.17
2023-04-14T19:31:08.863Z,2.15
2023-04-14T19:33:37.676Z,2.00
2023-04-14T19:36:17.195Z,1.95
2023-04-14T19:38:45.694Z,1.90
2023-04-14T19:41:14.634Z,2.10
2023-04-14T19:43:45.638Z,2.30
2023-04-14T19:46:16.772Z,1.92
2023-04-14T19:48:45.276Z,1.98
2023-04-14T19:51:13.927Z,2.42
2023-04-14T19:53:43.413Z,2.55
2023-04-14T19:56:12.713Z,2.30
2023-04-14T19:58:41.212Z,2.45
2023-04-14T20:01:09.770Z,2.25
2023-04-14T20:03:38.213Z,2.00
2023-04-14T20:06:27.074Z,1.60
2023-04-14T20:08:55.670Z,1.80
2023-04-14T20:11:27.804Z,2.03
2023-04-14T20:13:56.197Z,2.47
2023-04-14T20:16:24.791Z,3.20
2023-04-14T20:18:53.172Z,2.55
2023-04-14T20:21:21.670Z,2.20
2023-04-14T20:23:49.932Z,3.22
2023-04-14T20:26:18.184Z,2.47
2023-04-14T20:28:47.669Z,2.53
2023-04-14T20:31:16.089Z,2.85
2023-04-14T20:33:45.755Z,2.80
2023-04-14T20:36:14.162Z,2.33
2023-04-14T20:38:42.761Z,2.28
2023-04-14T20:41:11.191Z,3.45
2023-04-14T20:43:39.565Z,2.95
2023-04-14T20:46:07.862Z,3.25
2023-04-14T20:48:36.253Z,4.20
2023-04-14T20:51:04.501Z,3.45
2023-04-14T20:53:32.897Z,3.53
2023-04-14T20:56:01.180Z,3.72
2023-04-14T20:58:29.695Z,2.80
2023-04-14T21:00:58.178Z,3.15
2023-04-14T21:03:28.526Z,3.15
2023-04-14T21:05:56.833Z,2.80
2023-04-14T21:08:25.304Z,2.97
2023-04-14T21:11:14.296Z,3.05
2023-04-14T21:15:27.858Z,3.30
2023-04-14T21:16:30.577Z,4.13
2023-04-14T21:18:58.882Z,2.78
2023-04-14T21:21:27.991Z,3.38
2023-04-14T21:23:56.645Z,3.13
2023-04-14T21:26:25.005Z,3.45
2023-04-14T21:28:53.329Z,2.72
2023-04-14T21:31:21.544Z,3.53
2023-04-14T21:33:50.432Z,3.28
2023-04-14T21:36:19.652Z,3.50
2023-04-14T21:38:48.030Z,2.53
2023-04-14T21:41:16.569Z,3.53
2023-04-14T21:43:45.037Z,2.78
2023-04-14T21:46:13.740Z,2.42
2023-04-14T21:48:42.521Z,3.15
2023-04-14T21:51:11.813Z,3.05
2023-04-14T21:53:40.278Z,3.28
2023-04-14T21:56:09.773Z,3.17
2023-04-14T21:58:40.161Z,2.95
2023-04-14T22:01:10.202Z,3.45
2023-04-14T22:03:42.223Z,3.27
2023-04-14T22:06:11.304Z,2.85
2023-04-14T22:08:40.621Z,3.47
2023-04-14T22:11:09.090Z,3.70
2023-04-14T22:13:37.458Z,3.33
2023-04-14T22:16:06.366Z,3.22
2023-04-14T22:18:35.900Z,3.30
2023-04-14T22:21:05.249Z,2.78
2023-04-14T22:23:33.531Z,2.42
2023-04-14T22:26:01.993Z,3.10
2023-04-14T22:28:30.496Z,2.75
2023-04-14T22:30:59.365Z,2.63
2023-04-14T22:33:27.674Z,3.47
2023-04-14T22:35:56.231Z,2.88
2023-04-14T22:38:24.512Z,3.00
2023-04-14T22:40:52.958Z,2.53
2023-04-14T22:43:21.297Z,3.05
2023-04-14T22:45:49.643Z,2.90
2023-04-14T22:48:17.996Z,3.25
2023-04-14T22:50:46.333Z,2.28
2023-04-14T22:53:14.600Z,2.83
2023-04-14T22:55:43.936Z,3.00
2023-04-14T22:58:16.667Z,2.65
2023-04-14T23:00:48.306Z,2.90
2023-04-14T23:03:17.092Z,2.60
2023-04-14T23:05:45.674Z,2.72
2023-04-14T23:08:13.926Z,2.92
2023-04-14T23:10:42.469Z,3.10
2023-04-14T23:13:10.749Z,2.92
2023-04-14T23:15:39.130Z,2.88
2023-04-14T23:18:07.516Z,3.22
2023-04-14T23:20:36.829Z,2.67
2023-04-14T23:23:05.932Z,3.20
2023-04-14T23:25:35.299Z,2.50
2023-04-14T23:28:03.712Z,2.55
2023-04-14T23:30:32.565Z,2.40
2023-04-14T23:33:01.020Z,2.45
2023-04-14T23:35:29.560Z,2.58
2023-04-14T23:38:02.127Z,2.13
2023-04-14T23:40:35.497Z,2.55
2023-04-14T23:43:03.913Z,2.67
2023-04-14T23:45:36.942Z,2.55
2023-04-14T23:48:06.516Z,2.28
2023-04-14T23:51:01.533Z,2.53
2023-04-14T23:53:24.395Z,2.60
2023-04-14T23:55:52.913Z,2.88
2023-04-14T23:58:26.554Z,2.60
